Time,TemperatureF,DewpointF,PressureIn,WindDirection,WindDirectionDegrees,WindSpeedMPH,WindSpeedGustMPH,Humidity,HourlyPrecipIn,Conditions,Clouds,dailyrainin,SolarRadiationWatts/m^2,SoftwareType,DateUTC
2013-04-12 00:12:00,45.9,39.0,30.05,SE,137,5.0,-999.0,78,-99.99,,,0.00,0,weatherlink.com 1.10,2013-04-12 04:12:00,
2013-04-12 00:27:00,45.9,39.0,30.04,East,93,2.0,-999.0,77,-99.99,,,0.00,0,weatherlink.com 1.10,2013-04-12 04:27:00,
2013-04-12 00:42:00,45.8,39.0,30.03,ENE,78,1.0,-999.0,77,-99.99,,,0.00,0,weatherlink.com 1.10,2013-04-12 04:42:00,
2013-04-12 00:57:00,45.7,37.0,30.02,ESE,115,7.0,-999.0,73,-99.99,,,0.00,0,weatherlink.com 1.10,2013-04-12 04:57:00,
2013-04-12 01:12:00,45.7,37.0,30.02,SE,144,4.0,-999.0,72,-99.99,,,0.00,0,weatherlink.com 1.10,2013-04-12 05:12:00,
2013-04-12 01:27:00,45.2,36.0,30.03,East,82,3.0,-999.0,69,-99.99,,,0.00,0,weatherlink.com 1.10,2013-04-12 05:27:00,
2013-04-12 01:42:00,44.6,35.0,30.04,ENE,73,4.0,-999.0,69,-99.99,,,0.00,0,weatherlink.com 1.10,2013-04-12 05:42:00,
2013-04-12 01:57:00,44.1,35.0,30.03,NE,47,4.0,-999.0,71,-99.99,,,0.00,0,weatherlink.com 1.10,2013-04-12 05:57:00,
2013-04-12 02:12:00,43.8,35.0,30.02,ENE,67,2.0,-999.0,72,-99.99,,,0.00,0,weatherlink.com 1.10,2013-04-12 06:12:00,
2013-04-12 02:27:00,43.4,36.0,30.02,ENE,66,4.0,-999.0,74,-99.99,,,0.00,0,weatherlink.com 1.10,2013-04-12 06:27:00,
2013-04-12 02:42:00,43.1,35.0,30.01,ENE,74,3.0,-999.0,74,-99.99,,,0.00,0,weatherlink.com 1.10,2013-04-12 06:42:00,
2013-04-12 02:57:00,42.8,35.0,30.02,East,83,4.0,-999.0,74,-99.99,,,0.00,0,weatherlink.com 1.10,2013-04-12 06:57:00,
2013-04-12 03:12:00,42.8,35.0,30.02,ESE,104,5.0,-999.0,75,-99.99,,,0.00,0,weatherlink.com 1.10,2013-04-12 07:12:00,
2013-04-12 03:27:00,42.5,35.0,30.02,ENE,66,2.0,-999.0,76,-99.99,,,0.00,0,weatherlink.com 1.10,2013-04-12 07:27:00,
2013-04-12 03:42:00,42.3,35.0,30.01,ENE,74,2.0,-999.0,76,-99.99,,,0.00,0,weatherlink.com 1.10,2013-04-12 07:42:00,
2013-04-12 03:57:00,42.2,35.0,30.01,ESE,109,7.0,-999.0,77,-99.99,,,0.00,0,weatherlink.com 1.10,2013-04-12 07:57:00,
2013-04-12 04:12:00,42.1,35.0,30.01,ENE,77,2.0,-999.0,77,-99.99,,,0.00,0,weatherlink.com 1.10,2013-04-12 08:12:00,
2013-04-12 04:27:00,42.0,35.0,30.00,East,80,3.0,-999.0,77,-99.99,,,0.00,0,weatherlink.com 1.10,2013-04-12 08:27:00,
2013-04-12 04:42:00,41.9,35.0,30.01,East,90,0.0,-999.0,77,-99.99,,,0.00,0,weatherlink.com 1.10,2013-04-12 08:42:00,
2013-04-12 04:57:00,41.9,36.0,30.01,ENE,64,5.0,-999.0,78,-99.99,,,0.00,0,weatherlink.com 1.10,2013-04-12 08:57:00,
2013-04-12 05:12:00,41.7,35.0,29.99,NE,55,2.0,-999.0,78,-99.99,,,0.00,0,weatherlink.com 1.10,2013-04-12 09:12:00,
2013-04-12 05:27:00,41.6,35.0,30.00,NE,55,1.0,-999.0,78,-99.99,,,0.00,0,weatherlink.com 1.10,2013-04-12 09:27:00,
2013-04-12 05:42:00,41.7,35.0,30.00,East,81,5.0,-999.0,78,-99.99,,,0.00,0,weatherlink.com 1.10,2013-04-12 09:42:00,
2013-04-12 05:57:00,41.7,35.0,29.99,ENE,57,2.0,-999.0,78,-99.99,,,0.00,0,weatherlink.com 1.10,2013-04-12 09:57:00,
2013-04-12 06:12:00,41.6,35.0,29.98,SE,130,4.0,-999.0,78,-99.99,,,0.00,0,weatherlink.com 1.10,2013-04-12 10:12:00,
2013-04-12 06:27:00,41.7,36.0,29.96,East,83,5.0,-999.0,79,-99.99,,,0.00,0,weatherlink.com 1.10,2013-04-12 10:27:00,
2013-04-12 06:42:00,41.9,36.0,29.97,ENE,66,3.0,-999.0,78,-99.99,,,0.00,5,weatherlink.com 1.10,2013-04-12 10:42:00,
2013-04-12 06:57:00,42.1,35.0,29.95,ENE,70,3.0,-999.0,77,-99.99,,,0.00,12,weatherlink.com 1.10,2013-04-12 10:57:00,
2013-04-12 07:27:00,42.6,35.0,29.96,ESE,121,4.0,-999.0,74,-99.99,,,0.00,7,weatherlink.com 1.10,2013-04-12 11:27:00,
2013-04-12 07:42:00,42.6,35.0,29.95,ESE,104,18.0,-999.0,74,-99.99,,,0.00,9,weatherlink.com 1.10,2013-04-12 11:42:00,
2013-04-12 07:57:00,42.5,35.0,29.95,ESE,103,7.0,-999.0,74,-99.99,,,0.00,7,weatherlink.com 1.10,2013-04-12 11:57:00,
2013-04-12 08:12:00,42.2,35.0,29.94,East,86,4.0,-999.0,76,-99.99,,,0.00,19,weatherlink.com 1.10,2013-04-12 12:12:00,
2013-04-12 08:27:00,42.3,33.0,29.93,ENE,69,8.0,-999.0,69,-99.99,,,0.00,26,weatherlink.com 1.10,2013-04-12 12:27:00,
2013-04-12 08:42:00,42.6,31.0,29.92,South,182,6.0,-999.0,65,-99.99,,,0.00,23,weatherlink.com 1.10,2013-04-12 12:42:00,
2013-04-12 08:57:00,42.1,33.0,29.91,ESE,107,8.0,-999.0,70,-99.99,,,0.00,11,weatherlink.com 1.10,2013-04-12 12:57:00,
2013-04-12 09:12:00,41.5,34.0,29.91,SSE,163,6.0,-999.0,75,-99.99,,,0.01,18,weatherlink.com 1.10,2013-04-12 13:12:00,
2013-04-12 09:27:00,40.3,35.0,29.90,SE,136,7.0,-999.0,82,-99.99,,,0.04,30,weatherlink.com 1.10,2013-04-12 13:27:00,
2013-04-12 09:42:00,39.6,35.0,29.89,ESE,107,6.0,-999.0,84,-99.99,,,0.07,23,weatherlink.com 1.10,2013-04-12 13:42:00,
2013-04-12 09:57:00,39.2,36.0,29.91,SSW,202,2.0,-999.0,87,-99.99,,,0.10,18,weatherlink.com 1.10,2013-04-12 13:57:00,
2013-04-12 10:12:00,38.7,36.0,29.91,SSW,205,6.0,-999.0,89,-99.99,,,0.16,44,weatherlink.com 1.10,2013-04-12 14:12:00,
2013-04-12 10:27:00,38.8,36.0,29.90,SE,141,11.0,-999.0,90,-99.99,,,0.20,72,weatherlink.com 1.10,2013-04-12 14:27:00,
2013-04-12 10:42:00,38.9,36.0,29.92,SSW,202,3.0,-999.0,90,-99.99,,,0.22,33,weatherlink.com 1.10,2013-04-12 14:42:00,
2013-04-12 10:57:00,38.9,37.0,29.92,SE,144,7.0,-999.0,91,-99.99,,,0.26,76,weatherlink.com 1.10,2013-04-12 14:57:00,
2013-04-12 11:12:00,38.9,37.0,29.91,East,100,1.0,-999.0,91,-99.99,,,0.28,97,weatherlink.com 1.10,2013-04-12 15:12:00,
2013-04-12 11:27:00,39.0,36.0,29.89,SSE,156,4.0,-999.0,90,-99.99,,,0.29,111,weatherlink.com 1.10,2013-04-12 15:27:00,
2013-04-12 11:42:00,39.1,37.0,29.90,SSE,161,5.0,-999.0,90,-99.99,,,0.30,58,weatherlink.com 1.10,2013-04-12 15:42:00,
2013-04-12 11:57:00,39.1,37.0,29.89,East,81,3.0,-999.0,91,-99.99,,,0.31,95,weatherlink.com 1.10,2013-04-12 15:57:00,
2013-04-12 12:12:00,39.2,37.0,29.89,SE,144,5.0,-999.0,91,-99.99,,,0.32,60,weatherlink.com 1.10,2013-04-12 16:12:00,
2013-04-12 12:27:00,39.5,37.0,29.88,SE,125,1.0,-999.0,91,-99.99,,,0.32,95,weatherlink.com 1.10,2013-04-12 16:27:00,
2013-04-12 12:42:00,39.7,37.0,29.86,SSE,147,6.0,-999.0,91,-99.99,,,0.33,63,weatherlink.com 1.10,2013-04-12 16:42:00,
2013-04-12 12:57:00,39.8,38.0,29.85,SSW,192,3.0,-999.0,92,-99.99,,,0.34,86,weatherlink.com 1.10,2013-04-12 16:57:00,
2013-04-12 13:12:00,40.1,38.0,29.84,SSE,150,4.0,-999.0,92,-99.99,,,0.34,109,weatherlink.com 1.10,2013-04-12 17:12:00,
2013-04-12 13:27:00,40.4,38.0,29.82,SE,140,7.0,-999.0,91,-99.99,,,0.34,93,weatherlink.com 1.10,2013-04-12 17:27:00,
2013-04-12 13:42:00,40.6,38.0,29.83,South,190,1.0,-999.0,91,-99.99,,,0.34,104,weatherlink.com 1.10,2013-04-12 17:42:00,
2013-04-12 13:57:00,40.9,38.0,29.83,SE,141,15.0,-999.0,90,-99.99,,,0.34,81,weatherlink.com 1.10,2013-04-12 17:57:00,
2013-04-12 14:12:00,41.0,38.0,29.83,East,96,12.0,-999.0,90,-99.99,,,0.34,65,weatherlink.com 1.10,2013-04-12 18:12:00,
2013-04-12 15:27:00,40.8,38.0,29.79,ENE,73,13.0,-999.0,91,-99.99,,,0.34,102,weatherlink.com 1.10,2013-04-12 19:27:00,
2013-04-12 15:42:00,40.7,38.0,29.77,East,85,5.0,-999.0,91,-99.99,,,0.34,111,weatherlink.com 1.10,2013-04-12 19:42:00,
2013-04-12 15:57:00,41.0,39.0,29.76,ENE,69,8.0,-999.0,92,-99.99,,,0.34,53,weatherlink.com 1.10,2013-04-12 19:57:00,
2013-04-12 16:12:00,41.1,39.0,29.76,ENE,73,3.0,-999.0,91,-99.99,,,0.34,60,weatherlink.com 1.10,2013-04-12 20:12:00,
2013-04-12 16:27:00,41.1,39.0,29.76,NE,53,5.0,-999.0,91,-99.99,,,0.35,67,weatherlink.com 1.10,2013-04-12 20:27:00,
2013-04-12 16:42:00,41.0,39.0,29.75,NE,53,0.0,-999.0,92,-99.99,,,0.35,63,weatherlink.com 1.10,2013-04-12 20:42:00,
2013-04-12 16:57:00,41.1,39.0,29.76,ENE,66,4.0,-999.0,92,-99.99,,,0.35,67,weatherlink.com 1.10,2013-04-12 20:57:00,
2013-04-12 17:12:00,41.0,39.0,29.75,ENE,69,0.0,-999.0,92,-99.99,,,0.36,67,weatherlink.com 1.10,2013-04-12 21:12:00,
2013-04-12 17:27:00,40.9,39.0,29.75,North,9,2.0,-999.0,92,-99.99,,,0.36,54,weatherlink.com 1.10,2013-04-12 21:27:00,
2013-04-12 17:42:00,40.8,39.0,29.75,ENE,76,4.0,-999.0,92,-99.99,,,0.36,39,weatherlink.com 1.10,2013-04-12 21:42:00,
2013-04-12 17:57:00,40.8,39.0,29.76,NW,312,2.0,-999.0,92,-99.99,,,0.36,25,weatherlink.com 1.10,2013-04-12 21:57:00,
2013-04-12 18:12:00,40.7,39.0,29.76,ESE,112,1.0,-999.0,92,-99.99,,,0.36,23,weatherlink.com 1.10,2013-04-12 22:12:00,
2013-04-12 18:27:00,40.7,39.0,29.75,ENE,63,2.0,-999.0,93,-99.99,,,0.36,14,weatherlink.com 1.10,2013-04-12 22:27:00,
2013-04-12 18:42:00,40.6,39.0,29.75,East,79,2.0,-999.0,93,-99.99,,,0.36,14,weatherlink.com 1.10,2013-04-12 22:42:00,
2013-04-12 18:57:00,40.5,39.0,29.74,East,96,7.0,-999.0,93,-99.99,,,0.36,5,weatherlink.com 1.10,2013-04-12 22:57:00,
2013-04-12 19:12:00,40.6,39.0,29.75,NNE,24,0.0,-999.0,93,-99.99,,,0.36,0,weatherlink.com 1.10,2013-04-12 23:12:00,
2013-04-12 19:27:00,40.5,39.0,29.75,East,94,1.0,-999.0,93,-99.99,,,0.36,0,weatherlink.com 1.10,2013-04-12 23:27:00,
2013-04-12 19:42:00,40.3,39.0,29.73,NE,51,0.0,-999.0,93,-99.99,,,0.36,0,weatherlink.com 1.10,2013-04-12 23:42:00,
2013-04-12 19:57:00,40.2,38.0,29.74,ENE,74,4.0,-999.0,93,-99.99,,,0.36,0,weatherlink.com 1.10,2013-04-12 23:57:00,
2013-04-12 20:12:00,40.0,38.0,29.73,NE,51,3.0,-999.0,93,-99.99,,,0.36,0,weatherlink.com 1.10,2013-04-13 00:12:00,
2013-04-12 20:27:00,39.8,38.0,29.73,NNE,29,0.0,-999.0,93,-99.99,,,0.36,0,weatherlink.com 1.10,2013-04-13 00:27:00,
2013-04-12 20:42:00,39.7,38.0,29.73,NE,46,2.0,-999.0,93,-99.99,,,0.36,0,weatherlink.com 1.10,2013-04-13 00:42:00,
2013-04-12 20:57:00,39.6,38.0,29.73,NE,36,2.0,-999.0,93,-99.99,,,0.36,0,weatherlink.com 1.10,2013-04-13 00:57:00,
2013-04-12 21:12:00,39.4,38.0,29.73,NE,51,4.0,-999.0,93,-99.99,,,0.36,0,weatherlink.com 1.10,2013-04-13 01:12:00,
2013-04-12 21:27:00,39.3,38.0,29.74,NNE,15,2.0,-999.0,93,-99.99,,,0.36,0,weatherlink.com 1.10,2013-04-13 01:27:00,
2013-04-12 21:42:00,39.2,37.0,29.74,NNE,30,2.0,-999.0,93,-99.99,,,0.36,0,weatherlink.com 1.10,2013-04-13 01:42:00,
2013-04-12 21:57:00,39.1,37.0,29.74,NNE,32,2.0,-999.0,93,-99.99,,,0.36,0,weatherlink.com 1.10,2013-04-13 01:57:00,
2013-04-12 22:12:00,39.0,38.0,29.75,NE,53,2.0,-999.0,94,-99.99,,,0.36,0,weatherlink.com 1.10,2013-04-13 02:12:00,
2013-04-12 22:27:00,38.9,37.0,29.75,NE,51,0.0,-999.0,94,-99.99,,,0.36,0,weatherlink.com 1.10,2013-04-13 02:27:00,
2013-04-12 22:42:00,38.9,37.0,29.75,ENE,64,3.0,-999.0,93,-99.99,,,0.36,0,weatherlink.com 1.10,2013-04-13 02:42:00,
2013-04-12 22:57:00,38.9,37.0,29.74,North,5,2.0,-999.0,93,-99.99,,,0.36,0,weatherlink.com 1.10,2013-04-13 02:57:00,
2013-04-12 23:12:00,38.9,37.0,29.75,ENE,59,1.0,-999.0,93,-99.99,,,0.36,0,weatherlink.com 1.10,2013-04-13 03:12:00,
2013-04-12 23:27:00,38.9,37.0,29.76,NE,47,2.0,-999.0,93,-99.99,,,0.36,0,weatherlink.com 1.10,2013-04-13 03:27:00,
2013-04-12 23:42:00,38.9,37.0,29.77,North,5,2.0,-999.0,93,-99.99,,,0.36,0,weatherlink.com 1.10,2013-04-13 03:42:00,
2013-04-12 23:57:00,38.9,37.0,29.76,NE,47,1.0,-999.0,94,-99.99,,,0.36,0,weatherlink.com 1.10,2013-04-13 03:57:00,